Terminal Aerodrome Forecast
Issued by NWS Raleigh/Durham, NC

Home | Current Version | Previous Version | Text Only | Print | Product List | Glossary On
Versions: 1 2 3 4 5 6 7 8 9 10 11 12 13 14 15 16 17 18 19 20 21 22 23 24 25 26 27 28 29 30 31 32 33 34 35 36 37 38 39 40 41 42 43 44 45 46 47 48
000
FTUS42 KRAH 231239 AAA
TAFFAY
TAF AMD
KFAY 231239Z 2313/2412 18004KT P6SM FEW004 SCT015 BKN050
      TEMPO 2313/2314 1/2SM FG BKN002
     FM231800 21007KT P6SM BKN050
     FM232100 18005KT P6SM BKN250
     FM240700 19002KT 4SM BR SCT002 SCT250
     FM240900 19002KT 1/2SM FG OVC002=

USA.gov is the U.S. government's official web portal to all federal, state and local government web resources and services.